Aurora, NC

11:47 PM EDT on April 01, 2015 (GMT -0400)
S.W.Snowden Elementary School | | Change Station
CLOSE
Current Station
Personal Weather Station
Location: Aurora, NC
Elevation: 36 ft
Nearby Weather Stations
Active Advisory: Frost Advisory

Elev 36 ft 35.31 °N, 76.79 °W | Updated 9 minutes ago

Clear
Clear
44.1 °F
Feels Like 44 °F
N
0.0
Wind Variable Wind from SE
Gusts 0.0 mph

Today
High -- | Low -- °F
--% Chance of Precip.
Yesterday
High -- | Low -- °F
Precip. -- in
6:54 AM 7:28 PM
Waxing Gibbous, 95% visible
Pressure 30.30 in
Visibility 10.0 miles
Clouds Clear
Windchill 44 °F
Dew Point 40 °F
Humidity 84%
Rainfall 0.00 in
Snow Depth Not available.
UV 0.0 out of 12
Pollen 10.20 out of 12
Air Quality Not available.
Flu Activity Not available.
METAR KEWN 020254Z AUTO 11007KT 10SM CLR 09/03 A3030 RMK AO2 SLP261 T00890033 51030

More Conditions Fewer Conditions

Pressure 30.30 in
Visibility 10.0 miles
Clouds Clear
Windchill 44 °F
Dew Point 40 °F
Humidity 84%
Rainfall 0.00 in
Snow Depth Not available.
UV 0.0 out of 12
Pollen 10.20 out of 12
Air Quality Not available.
Flu Activity Not available.
METAR KEWN 020254Z AUTO 11007KT 10SM CLR 09/03 A3030 RMK AO2 SLP261 T00890033 51030

More Conditions Fewer Conditions

10-Day Weather Forecast

Almanac

Astronomy

Apr. 01, 2015 Rise Set
Actual Time
Civil Twilight
Nautical Twilight
Astronomical Twilight
Moon
Length of Visible Light
Length of Day
Tomorrow will be .
, % of the Moon is Illuminated

Today's Extremes

State Highs State Lows

Community

WunderPhotos

Upload Photos

1,810,188 photos uploaded!

WunderBlogs® & News

Nearby

Air Quality

  Air Quality AQ Index Pollutant
Not available.

Snow Depth

Station Depth Elevation

Earthquake Activity

City Distance Mag. Time & Date
Minimum magnitude displayed is 2.5.

Coastal Water Temperatures

Place Temperature

Stations

Nearby Weather Stations

Station Location Temp. Windchill Dew Point Humidity Wind Precip. Elev Updated Type
                   
Frost Advisory
Statement as of 3:33 PM EDT on April 01, 2015

... Frost advisory in effect from 4 am to 8 am EDT Thursday...

The National Weather Service in Newport/Morehead City has issued
a frost advisory... which is in effect from 4 am to 8 am EDT
Thursday.

* Temperatures... in the middle 30s.

* Timing... 4 am to 8 am.

Precautionary/preparedness actions...

A frost advisory means that frost is possible. Sensitive outdoor
plants may be killed if left uncovered.